Time;durP1;ratioP1;P1;durP2;ratioP2;P2;SDS_P1;SDS_P2;PMS_P1;PMS_P2;Temp;Humidity;BMP_temperature;BMP_pressure;BME280_temperature;BME280_humidity;BME280_pressure;Samples;Min_cycle;Max_cycle;Signal;HPM_P1;HPM_P2
2021/01/20 00:00:24;;;;;;;13.52;9.75;;;6.60;99.50;;;;;;5056456;28;20045;-61
2021/01/20 00:02:51;;;;;;;13.70;9.88;;;6.60;99.50;;;;;;5056384;28;20126;-61
2021/01/20 00:05:18;;;;;;;14.38;10.38;;;6.60;99.50;;;;;;5056403;28;20045;-61
2021/01/20 00:07:51;;;;;;;14.05;10.07;;;6.60;99.50;;;;;;5056338;28;20057;-59
2021/01/20 00:10:18;;;;;;;15.55;9.60;;;6.60;99.70;;;;;;5056266;28;20450;-61
2021/01/20 00:12:48;;;;;;;13.50;9.60;;;6.60;99.80;;;;;;5056191;28;20055;-61
2021/01/20 00:15:24;;;;;;;13.82;9.50;;;6.60;99.80;;;;;;5055984;28;20041;-61
2021/01/20 00:17:51;;;;;;;14.45;8.73;;;6.60;99.90;;;;;;5055073;28;20048;-61
2021/01/20 00:20:22;;;;;;;11.60;8.57;;;6.60;99.90;;;;;;5056060;28;20072;-60
2021/01/20 00:22:56;;;;;;;13.85;9.60;;;6.60;99.90;;;;;;5056265;28;20076;-61
2021/01/20 00:25:26;;;;;;;11.63;8.20;;;6.60;99.90;;;;;;5055998;28;20044;-60
2021/01/20 00:27:56;;;;;;;11.70;9.23;;;6.60;99.90;;;;;;5055848;28;20491;-60
2021/01/20 00:30:24;;;;;;;12.52;8.65;;;6.50;99.90;;;;;;5056009;28;20041;-60
2021/01/20 00:32:58;;;;;;;14.60;8.82;;;6.50;99.90;;;;;;5056006;28;20051;-60
2021/01/20 00:35:25;;;;;;;15.43;8.38;;;6.40;99.90;;;;;;5055146;28;20053;-61
2021/01/20 00:37:55;;;;;;;14.88;10.05;;;6.40;99.90;;;;;;5055706;28;20056;-61
2021/01/20 00:40:24;;;;;;;15.73;10.23;;;6.30;99.90;;;;;;5055629;28;20439;-61
2021/01/20 00:42:53;;;;;;;15.85;10.55;;;6.30;99.90;;;;;;5054627;28;20044;-60
2021/01/20 00:45:23;;;;;;;12.25;8.55;;;6.40;99.90;;;;;;5055790;28;20372;-60
2021/01/20 00:47:52;;;;;;;11.68;9.07;;;6.40;99.90;;;;;;5055807;28;20139;-60
2021/01/20 00:50:19;;;;;;;11.25;9.13;;;6.40;99.90;;;;;;5055402;28;20049;-61
2021/01/20 00:52:54;;;;;;;13.32;9.23;;;6.40;99.90;;;;;;5054289;28;20044;-61
2021/01/20 00:55:22;;;;;;;12.68;9.18;;;6.40;99.90;;;;;;5054588;28;20041;-61
2021/01/20 00:57:52;;;;;;;11.95;10.05;;;6.40;99.90;;;;;;5055658;28;20410;-61
2021/01/20 01:00:23;;;;;;;13.30;9.50;;;6.30;99.90;;;;;;5054136;28;20051;-61
2021/01/20 01:02:55;;;;;;;15.60;9.30;;;6.30;99.90;;;;;;5055361;28;20525;-61
2021/01/20 01:05:24;;;;;;;10.73;8.50;;;6.30;99.90;;;;;;5055216;28;20497;-61
2021/01/20 01:08:01;;;;;;;15.43;8.75;;;6.20;99.90;;;;;;5054430;28;20507;-61
2021/01/20 01:10:38;;;;;;;13.23;9.65;;;6.20;99.90;;;;;;5054349;28;20143;-60
2021/01/20 01:13:12;;;;;;;16.00;10.13;;;6.30;99.90;;;;;;5053194;28;20056;-61
2021/01/20 01:15:55;;;;;;;12.57;8.77;;;6.30;99.90;;;;;;5053924;28;20391;-61
2021/01/20 01:18:22;;;;;;;18.77;10.35;;;6.40;99.90;;;;;;5053801;28;20128;-61
2021/01/20 01:20:51;;;;;;;15.77;11.18;;;6.30;99.90;;;;;;5037767;28;20041;-61
2021/01/20 01:23:20;;;;;;;13.20;9.63;;;6.40;99.90;;;;;;5053637;28;20073;-61
2021/01/20 01:25:52;;;;;;;13.48;10.07;;;6.40;99.90;;;;;;5053705;28;20057;-61
2021/01/20 01:28:21;;;;;;;15.27;9.38;;;6.40;99.90;;;;;;5053574;28;20045;-61
2021/01/20 01:31:10;;;;;;;12.25;8.75;;;6.40;99.90;;;;;;5053728;28;20049;-60
2021/01/20 01:33:37;;;;;;;10.43;7.50;;;6.40;99.90;;;;;;5053574;28;20048;-61
2021/01/20 01:36:05;;;;;;;12.77;9.13;;;6.40;99.90;;;;;;5053342;28;20049;-61
2021/01/20 01:38:34;;;;;;;13.13;8.23;;;6.30;99.90;;;;;;5053378;28;20523;-60
2021/01/20 01:41:07;;;;;;;14.15;8.90;;;6.40;99.90;;;;;;5053188;28;20045;-61
2021/01/20 01:44:00;;;;;;;11.98;8.68;;;6.40;99.90;;;;;;5051460;28;20124;-61
2021/01/20 01:46:46;;;;;;;13.32;8.57;;;6.30;99.90;;;;;;5053353;28;20106;-60
2021/01/20 01:49:36;;;;;;;11.13;8.13;;;6.30;99.90;;;;;;5053804;28;20048;-60
2021/01/20 01:52:07;;;;;;;14.02;8.57;;;6.40;99.90;;;;;;5052466;28;20053;-60
2021/01/20 01:54:41;;;;;;;13.00;8.68;;;6.40;99.90;;;;;;5054370;28;20110;-61
2021/01/20 01:57:42;;;;;;;14.30;8.85;;;6.40;99.90;;;;;;5053913;28;20061;-61
2021/01/20 02:00:12;;;;;;;13.45;8.60;;;6.50;99.90;;;;;;5052989;28;20060;-61
2021/01/20 02:02:44;;;;;;;11.40;7.68;;;6.50;99.90;;;;;;5054345;28;20060;-61
2021/01/20 02:05:21;;;;;;;10.52;7.15;;;6.50;99.90;;;;;;5052419;28;20045;-60
2021/01/20 02:07:48;;;;;;;11.30;8.80;;;6.60;99.90;;;;;;5054322;28;20053;-60
2021/01/20 02:10:22;;;;;;;13.65;7.25;;;6.60;99.90;;;;;;5052851;28;20049;-60
2021/01/20 02:13:10;;;;;;;13.48;8.10;;;6.60;99.90;;;;;;5052703;28;20041;-60
2021/01/20 02:16:03;;;;;;;;;;;6.60;99.90;;;;;;5054365;28;20056;-60
2021/01/20 02:18:36;;;;;;;8.95;6.90;;;6.60;99.90;;;;;;5053024;28;19921;-60
2021/01/20 02:21:54;;;;;;;11.85;8.10;;;6.60;99.90;;;;;;5052748;28;20045;-60
2021/01/20 02:25:40;;;;;;;14.20;7.80;;;6.60;99.90;;;;;;5012070;28;20208;-60
2021/01/20 02:28:41;;;;;;;9.68;7.97;;;6.70;99.90;;;;;;4995673;28;20060;-60
2021/01/20 02:31:28;;;;;;;14.07;7.22;;;6.70;99.90;;;;;;5052467;28;20140;-60
2021/01/20 02:34:06;;;;;;;10.07;6.75;;;6.80;99.90;;;;;;5052625;28;20048;-61
2021/01/20 02:36:41;;;;;;;12.13;7.65;;;6.70;99.90;;;;;;5052563;28;20406;-60
2021/01/20 02:39:30;;;;;;;10.07;7.55;;;6.70;99.90;;;;;;5052249;28;20154;-61
2021/01/20 02:42:22;;;;;;;11.32;6.88;;;6.70;99.90;;;;;;5052563;28;20504;-60
2021/01/20 02:45:01;;;;;;;9.52;7.22;;;6.70;99.90;;;;;;5052384;28;20052;-61
2021/01/20 02:47:40;;;;;;;10.50;7.50;;;6.60;99.90;;;;;;5053416;28;20076;-60
2021/01/20 02:50:15;;;;;;;10.98;7.80;;;6.60;99.90;;;;;;5052382;28;20052;-60
2021/01/20 02:53:08;;;;;;;11.00;6.93;;;6.60;99.90;;;;;;5053574;28;20047;-60
2021/01/20 02:56:01;;;;;;;12.40;7.93;;;6.50;99.90;;;;;;5052946;28;20396;-60
2021/01/20 02:59:06;;;;;;;12.25;8.18;;;6.50;99.90;;;;;;5041326;28;20053;-60
2021/01/20 03:02:05;;;;;;;10.57;8.50;;;6.40;99.90;;;;;;5053057;28;20055;-61
2021/01/20 03:04:40;;;;;;;11.95;8.68;;;6.50;99.90;;;;;;5053300;28;20119;-60
2021/01/20 03:07:09;;;;;;;12.27;8.68;;;6.40;99.90;;;;;;5053089;28;20498;-60
2021/01/20 03:09:37;;;;;;;14.95;8.60;;;6.30;99.90;;;;;;5053464;28;20463;-60
2021/01/20 03:12:11;;;;;;;12.88;7.88;;;6.20;99.90;;;;;;5053487;28;20434;-60
2021/01/20 03:14:44;;;;;;;15.13;9.05;;;6.10;99.90;;;;;;5053353;28;20060;-59
2021/01/20 03:17:11;;;;;;;11.18;8.30;;;6.10;99.90;;;;;;5053971;28;20076;-59
2021/01/20 03:19:38;;;;;;;10.80;6.80;;;6.00;99.90;;;;;;5057202;28;20052;-60
2021/01/20 03:22:05;;;;;;;9.85;7.63;;;5.90;99.90;;;;;;5057073;28;20061;-60
2021/01/20 03:24:32;;;;;;;11.35;8.25;;;5.90;99.90;;;;;;5057207;28;20126;-60
2021/01/20 03:26:59;;;;;;;12.07;6.50;;;5.90;99.90;;;;;;5057056;28;20049;-60
2021/01/20 03:29:29;;;;;;;12.43;7.55;;;6.00;99.90;;;;;;5056996;28;20123;-60
2021/01/20 03:32:00;;;;;;;10.65;7.13;;;6.00;99.90;;;;;;5055924;28;20128;-60
2021/01/20 03:34:40;;;;;;;10.00;6.95;;;6.10;99.90;;;;;;5057033;28;20053;-58
2021/01/20 03:37:07;;;;;;;13.80;7.80;;;6.20;99.90;;;;;;5056946;28;20408;-60
2021/01/20 03:39:34;;;;;;;10.43;7.65;;;6.30;99.90;;;;;;5056786;28;20525;-58
2021/01/20 03:42:01;;;;;;;9.10;6.68;;;6.30;99.90;;;;;;5056768;28;20108;-60
2021/01/20 03:44:28;;;;;;;10.10;7.32;;;6.30;99.90;;;;;;5056811;28;20060;-60
2021/01/20 03:46:58;;;;;;;11.65;7.15;;;6.30;99.90;;;;;;5056684;28;20057;-60
2021/01/20 03:49:26;;;;;;;10.57;7.75;;;6.20;99.90;;;;;;5056820;28;20060;-60
2021/01/20 03:51:53;;;;;;;10.68;7.20;;;6.10;99.90;;;;;;5055539;28;20053;-61
2021/01/20 03:54:20;;;;;;;9.18;6.57;;;6.10;99.90;;;;;;5056627;28;20045;-60
2021/01/20 03:56:50;;;;;;;10.77;7.85;;;6.10;99.90;;;;;;5056632;28;20057;-61
2021/01/20 03:59:18;;;;;;;13.93;7.30;;;6.10;99.90;;;;;;5056927;28;20502;-60
2021/01/20 04:01:48;;;;;;;12.30;8.05;;;6.10;99.90;;;;;;5055428;28;20053;-60
2021/01/20 04:04:18;;;;;;;12.57;8.43;;;6.00;99.90;;;;;;5056546;28;20483;-60
2021/01/20 04:06:49;;;;;;;13.27;8.27;;;6.00;99.90;;;;;;5056450;28;20518;-60
2021/01/20 04:09:21;;;;;;;10.60;8.35;;;6.00;99.90;;;;;;5056323;28;20136;-61
2021/01/20 04:11:48;;;;;;;10.98;8.48;;;6.00;99.90;;;;;;5056376;28;20045;-60
2021/01/20 04:14:16;;;;;;;13.57;9.05;;;5.90;99.90;;;;;;5055001;28;20047;-60
2021/01/20 04:16:48;;;;;;;13.10;9.25;;;5.90;99.90;;;;;;5056307;28;20045;-60
2021/01/20 04:19:16;;;;;;;14.43;8.82;;;5.80;99.90;;;;;;5056204;28;20049;-61
2021/01/20 04:21:48;;;;;;;12.35;8.55;;;5.90;99.90;;;;;;5056293;28;20041;-60
2021/01/20 04:24:22;;;;;;;13.00;8.45;;;5.90;99.90;;;;;;5056144;28;20059;-60
2021/01/20 04:26:49;;;;;;;14.02;9.75;;;5.90;99.90;;;;;;5056042;28;20491;-61
2021/01/20 04:29:19;;;;;;;12.52;7.95;;;6.00;99.90;;;;;;5055882;28;20053;-60
2021/01/20 04:31:53;;;;;;;11.70;8.98;;;6.00;99.90;;;;;;5056068;28;20045;-61
2021/01/20 04:34:23;;;;;;;12.82;9.32;;;6.00;99.90;;;;;;5054711;28;20049;-60
2021/01/20 04:36:50;;;;;;;13.82;9.63;;;6.00;99.90;;;;;;5055854;28;20045;-60
2021/01/20 04:39:17;;;;;;;14.45;10.00;;;6.00;99.90;;;;;;5055610;28;20045;-60
2021/01/20 04:41:46;;;;;;;13.98;9.45;;;6.00;99.90;;;;;;5054744;28;20391;-60
2021/01/20 04:44:13;;;;;;;15.13;9.50;;;5.90;99.90;;;;;;5055878;28;20131;-60
2021/01/20 04:46:43;;;;;;;15.75;11.23;;;5.90;99.90;;;;;;5055730;28;20099;-60
2021/01/20 04:49:16;;;;;;;15.88;11.90;;;5.90;99.90;;;;;;5055550;28;20041;-60
2021/01/20 04:51:44;;;;;;;15.10;10.45;;;5.80;99.90;;;;;;5055542;28;20056;-60
2021/01/20 04:54:13;;;;;;;15.32;10.82;;;5.90;99.90;;;;;;5054194;28;20041;-60
2021/01/20 04:56:40;;;;;;;15.18;10.27;;;5.90;99.90;;;;;;5055240;28;20064;-60
2021/01/20 04:59:08;;;;;;;14.68;9.82;;;5.90;99.90;;;;;;5055442;28;20048;-60
2021/01/20 05:01:38;;;;;;;15.52;10.15;;;5.90;99.90;;;;;;5055310;28;20052;-60
2021/01/20 05:04:10;;;;;;;15.40;11.07;;;5.80;99.90;;;;;;5055322;28;20578;-61
2021/01/20 05:06:40;;;;;;;14.38;10.55;;;5.90;99.90;;;;;;5055340;28;20562;-60
2021/01/20 05:09:07;;;;;;;14.52;9.93;;;5.80;99.90;;;;;;5055473;28;20041;-60
2021/01/20 05:11:45;;;;;;;15.32;10.45;;;5.80;99.90;;;;;;5055322;28;20056;-61
2021/01/20 05:14:19;;;;;;;14.10;9.55;;;5.90;99.90;;;;;;5055101;28;20495;-60
2021/01/20 05:16:51;;;;;;;15.93;9.85;;;5.90;99.90;;;;;;5055061;28;20136;-60
2021/01/20 05:19:35;;;;;;;15.18;10.52;;;5.80;99.90;;;;;;5055166;28;20395;-60
2021/01/20 05:22:07;;;;;;;13.27;8.65;;;5.80;99.90;;;;;;5054624;28;20049;-61
2021/01/20 05:24:35;;;;;;;10.82;8.68;;;5.80;99.90;;;;;;5054819;28;20040;-61
2021/01/20 05:27:06;;;;;;;15.88;9.80;;;5.90;99.90;;;;;;5054989;28;20139;-60
2021/01/20 05:29:36;;;;;;;16.42;9.35;;;5.90;99.90;;;;;;5054823;28;20399;-61
2021/01/20 05:32:18;;;;;;;9.13;7.97;;;5.90;99.90;;;;;;5054879;28;20052;-60
2021/01/20 05:35:06;;;;;;;13.05;9.27;;;6.00;99.90;;;;;;5054817;28;20052;-60
2021/01/20 05:37:44;;;;;;;16.13;10.23;;;6.00;99.90;;;;;;5054463;28;20454;-61
2021/01/20 05:40:16;;;;;;;13.90;9.57;;;6.10;99.90;;;;;;5053678;28;20053;-61
2021/01/20 05:42:54;;;;;;;16.83;9.27;;;6.10;99.90;;;;;;5053454;28;20041;-61
2021/01/20 05:45:24;;;;;;;11.25;7.53;;;6.10;99.90;;;;;;5053451;28;20053;-60
2021/01/20 05:48:04;;;;;;;12.27;8.50;;;6.20;99.90;;;;;;5053375;28;20048;-60
2021/01/20 05:50:31;;;;;;;;;;;6.20;99.90;;;;;;5054815;28;20051;-60
2021/01/20 05:53:11;;;;;;;13.02;8.52;;;6.20;99.90;;;;;;5054380;28;19968;-61
2021/01/20 05:55:39;;;;;;;11.52;8.35;;;6.20;99.90;;;;;;5054469;28;20414;-60
2021/01/20 05:58:09;;;;;;;15.05;7.88;;;6.20;99.90;;;;;;5054237;28;20052;-60
2021/01/20 06:00:36;;;;;;;14.85;9.15;;;6.20;99.90;;;;;;5054237;28;20395;-60
2021/01/20 06:03:03;;;;;;;12.32;8.02;;;6.20;99.90;;;;;;5054150;28;20049;-60
2021/01/20 06:05:34;;;;;;;9.95;7.25;;;6.30;99.90;;;;;;5054246;28;20056;-60
2021/01/20 06:08:01;;;;;;;10.85;7.47;;;6.30;99.90;;;;;;5054650;28;20391;-60
2021/01/20 06:10:28;;;;;;;11.32;7.85;;;6.40;99.90;;;;;;5054157;28;20044;-61
2021/01/20 06:12:55;;;;;;;10.43;7.72;;;6.40;99.90;;;;;;5053895;28;20049;-60
2021/01/20 06:15:26;;;;;;;11.00;7.18;;;6.40;99.90;;;;;;5054088;28;20049;-60
2021/01/20 06:17:55;;;;;;;10.95;7.22;;;6.40;99.90;;;;;;5053685;28;20041;-60
2021/01/20 06:20:23;;;;;;;9.80;7.28;;;6.50;99.90;;;;;;5053828;28;20146;-60
2021/01/20 06:22:57;;;;;;;11.02;7.10;;;6.70;99.90;;;;;;5053981;28;20068;-60
2021/01/20 06:25:33;;;;;;;8.63;6.90;;;6.90;99.90;;;;;;5054066;28;20055;-60
2021/01/20 06:28:00;;;;;;;8.20;6.30;;;7.30;99.90;;;;;;5053840;28;20068;-60
2021/01/20 06:30:38;;;;;;;10.50;6.43;;;7.80;99.90;;;;;;5053584;28;20407;-60
2021/01/20 06:33:10;;;;;;;9.10;6.40;;;8.10;99.90;;;;;;5054156;28;20059;-60
2021/01/20 06:36:03;;;;;;;8.93;5.20;;;8.20;99.90;;;;;;5053754;28;20045;-60
2021/01/20 06:38:35;;;;;;;7.03;4.97;;;8.00;99.90;;;;;;5050984;28;20073;-59
2021/01/20 06:41:29;;;;;;;7.35;4.90;;;7.90;99.90;;;;;;5053601;28;20055;-58
2021/01/20 06:44:10;;;;;;;11.73;5.07;;;7.70;99.90;;;;;;5053586;28;20052;-59
2021/01/20 06:46:57;;;;;;;7.07;5.38;;;7.60;99.90;;;;;;5053483;28;20048;-58
2021/01/20 06:49:33;;;;;;;12.73;8.18;;;7.60;99.90;;;;;;5052400;28;20548;-58
2021/01/20 06:52:12;;;;;;;12.60;8.23;;;7.50;99.90;;;;;;5053311;28;20056;-59
2021/01/20 06:54:45;;;;;;;8.52;6.45;;;7.50;99.90;;;;;;5051592;28;20107;-58
2021/01/20 06:57:36;;;;;;;11.40;7.57;;;7.50;99.90;;;;;;5051954;28;20049;-58
2021/01/20 07:00:16;;;;;;;9.13;5.80;;;7.50;99.90;;;;;;5053524;28;20134;-58
2021/01/20 07:03:03;;;;;;;7.72;5.05;;;7.50;99.90;;;;;;5053476;28;20056;-58
2021/01/20 07:05:38;;;;;;;8.60;4.65;;;7.50;99.90;;;;;;5053184;28;20053;-58
2021/01/20 07:08:09;;;;;;;7.10;4.38;;;7.50;99.90;;;;;;5053286;28;20064;-60
2021/01/20 07:10:58;;;;;;;6.28;4.70;;;7.50;99.90;;;;;;5053375;28;20049;-60
2021/01/20 07:13:34;;;;;;;7.43;4.50;;;7.60;99.90;;;;;;5053553;28;20092;-60
2021/01/20 07:16:03;;;;;;;8.45;4.13;;;7.50;99.90;;;;;;5053239;28;20081;-60
2021/01/20 07:18:36;;;;;;;5.90;3.97;;;7.60;99.90;;;;;;5053142;28;20053;-60
2021/01/20 07:21:06;;;;;;;5.80;3.88;;;7.70;99.90;;;;;;5053195;28;20128;-61
2021/01/20 07:23:34;;;;;;;6.25;4.18;;;7.70;99.90;;;;;;5053237;28;20522;-60
2021/01/20 07:26:03;;;;;;;7.50;4.70;;;7.70;99.90;;;;;;5053118;28;20056;-60
2021/01/20 07:28:35;;;;;;;9.20;4.50;;;7.70;99.90;;;;;;5053110;28;20048;-60
2021/01/20 07:31:12;;;;;;;8.40;5.07;;;7.80;99.90;;;;;;5052989;28;20124;-60
2021/01/20 07:33:59;;;;;;;8.52;4.65;;;7.80;99.90;;;;;;5053017;28;20154;-60
2021/01/20 07:36:27;;;;;;;6.93;5.50;;;7.90;99.90;;;;;;5051861;28;20052;-60
2021/01/20 07:38:55;;;;;;;8.73;6.32;;;8.10;99.90;;;;;;5051762;28;20069;-60
2021/01/20 07:41:25;;;;;;;11.23;6.25;;;8.20;99.90;;;;;;5052991;28;20076;-58
2021/01/20 07:44:07;;;;;;;7.53;5.65;;;8.70;99.90;;;;;;5053029;28;20138;-58
2021/01/20 07:46:39;;;;;;;6.90;5.32;;;10.30;99.90;;;;;;5053052;28;20179;-58
2021/01/20 07:49:19;;;;;;;9.38;6.50;;;12.00;99.90;;;;;;5051786;28;20037;-58
2021/01/20 07:51:59;;;;;;;10.05;5.82;;;13.70;97.20;;;;;;5052946;28;20465;-59
2021/01/20 07:54:44;;;;;;;9.43;6.32;;;15.00;94.30;;;;;;5053129;28;20041;-59
2021/01/20 07:57:16;;;;;;;7.35;4.47;;;15.70;91.70;;;;;;5052625;28;20509;-58
2021/01/20 07:59:44;;;;;;;5.95;4.10;;;16.20;90.80;;;;;;5053083;28;20057;-58
2021/01/20 08:02:16;;;;;;;5.03;2.97;;;16.60;89.30;;;;;;5052833;28;20609;-58
2021/01/20 08:04:59;;;;;;;4.68;3.08;;;16.80;87.70;;;;;;5055895;28;20053;-58
2021/01/20 08:07:26;;;;;;;5.07;2.83;;;17.10;86.30;;;;;;5055927;28;20100;-59
2021/01/20 08:09:57;;;;;;;4.50;3.20;;;17.10;84.80;;;;;;5056683;28;20045;-59
2021/01/20 08:12:28;;;;;;;4.25;2.90;;;17.10;84.80;;;;;;5056261;28;20092;-59
2021/01/20 08:15:03;;;;;;;3.15;2.50;;;17.00;84.10;;;;;;5056564;28;20406;-59
2021/01/20 08:17:34;;;;;;;6.18;3.17;;;17.10;84.20;;;;;;5056105;28;20048;-59
2021/01/20 08:20:11;;;;;;;4.28;2.60;;;17.00;83.80;;;;;;5056278;28;20048;-59
2021/01/20 08:22:45;;;;;;;3.83;2.92;;;17.00;83.70;;;;;;5054339;28;20057;-59
2021/01/20 08:25:19;;;;;;;5.57;3.53;;;16.80;83.50;;;;;;5056111;28;20059;-59
2021/01/20 08:27:46;;;;;;;6.95;3.20;;;16.60;84.00;;;;;;5055307;28;20049;-59
2021/01/20 08:30:31;;;;;;;4.07;2.67;;;16.40;84.40;;;;;;5055886;28;20506;-59
2021/01/20 08:33:00;;;;;;;6.03;4.35;;;16.20;84.70;;;;;;5037520;28;20049;-59
2021/01/20 08:35:38;;;;;;;5.50;2.88;;;15.90;85.20;;;;;;5055966;28;20045;-59
2021/01/20 08:38:24;;;;;;;4.72;3.60;;;15.60;86.20;;;;;;5055804;28;20500;-59
2021/01/20 08:41:14;;;;;;;7.75;5.03;;;15.40;87.20;;;;;;5055850;28;20134;-59
2021/01/20 08:43:43;;;;;;;8.70;5.22;;;15.10;88.10;;;;;;5055841;28;20051;-59
2021/01/20 08:46:26;;;;;;;6.10;4.30;;;14.80;88.00;;;;;;5055783;28;20490;-59
2021/01/20 08:48:59;;;;;;;16.25;8.85;;;14.40;89.00;;;;;;5055519;28;20498;-58
2021/01/20 08:51:26;;;;;;;8.05;5.00;;;14.20;89.00;;;;;;5055507;28;20112;-59
2021/01/20 08:54:13;;;;;;;3.38;2.35;;;13.90;88.50;;;;;;5055521;28;20110;-59
2021/01/20 08:56:46;;;;;;;17.40;10.93;;;14.00;90.00;;;;;;5054169;28;20057;-59
2021/01/20 08:59:22;;;;;;;7.80;3.90;;;14.00;89.80;;;;;;5054391;28;20498;-59
2021/01/20 09:01:52;;;;;;;5.18;3.22;;;14.00;89.60;;;;;;5055511;28;20111;-59
2021/01/20 09:04:19;;;;;;;8.73;5.50;;;14.10;90.20;;;;;;5055230;28;20124;-59
2021/01/20 09:06:51;;;;;;;4.80;3.58;;;14.20;90.30;;;;;;5055414;28;20061;-59
2021/01/20 09:09:25;;;;;;;6.20;4.30;;;14.30;89.30;;;;;;5055163;28;20488;-59
2021/01/20 09:11:56;;;;;;;6.32;3.95;;;14.40;89.20;;;;;;5055152;28;20132;-59
2021/01/20 09:14:29;;;;;;;9.10;5.38;;;14.50;89.10;;;;;;5055222;28;20487;-59
2021/01/20 09:16:56;;;;;;;5.22;3.53;;;14.60;88.80;;;;;;5053934;28;20055;-59
2021/01/20 09:19:24;;;;;;;3.78;2.60;;;14.60;88.50;;;;;;5055006;28;20048;-59
2021/01/20 09:21:53;;;;;;;4.45;2.65;;;14.60;88.70;;;;;;5047115;28;20127;-59
2021/01/20 09:24:21;;;;;;;4.78;2.75;;;14.70;87.80;;;;;;5038364;28;20392;-59
2021/01/20 09:26:53;;;;;;;2.42;2.10;;;14.60;87.90;;;;;;5045655;28;20056;-59
2021/01/20 09:29:24;;;;;;;3.22;2.08;;;14.70;87.90;;;;;;5034914;28;20042;-59
2021/01/20 09:31:51;;;;;;;3.78;2.67;;;14.70;87.10;;;;;;5045729;28;20052;-59
2021/01/20 09:34:21;;;;;;;4.25;2.38;;;14.60;86.40;;;;;;5034517;28;20056;-59
2021/01/20 09:36:49;;;;;;;2.78;1.75;;;14.60;85.90;;;;;;5043566;28;20132;-59
2021/01/20 09:39:18;;;;;;;3.33;2.15;;;14.80;86.50;;;;;;5034345;28;20115;-59
2021/01/20 09:41:45;;;;;;;4.45;2.33;;;14.70;86.50;;;;;;5033697;28;20053;-59
2021/01/20 09:44:13;;;;;;;2.38;1.90;;;14.70;86.10;;;;;;5034194;28;20119;-59
2021/01/20 09:46:40;;;;;;;4.28;2.13;;;14.70;85.70;;;;;;5038915;28;20498;-59
2021/01/20 09:49:07;;;;;;;3.33;1.98;;;14.60;84.20;;;;;;5033885;28;20484;-59
2021/01/20 09:51:35;;;;;;;3.38;1.90;;;14.60;84.40;;;;;;5041266;28;20124;-59
2021/01/20 09:54:03;;;;;;;2.55;1.80;;;14.60;84.10;;;;;;5035594;28;20037;-59
2021/01/20 09:56:31;;;;;;;3.10;1.63;;;14.80;83.80;;;;;;5042048;28;20506;-59
2021/01/20 09:58:58;;;;;;;1.67;1.15;;;14.90;83.50;;;;;;5034948;28;20046;-59
2021/01/20 10:01:27;;;;;;;3.13;1.95;;;15.00;82.60;;;;;;5041617;28;20052;-59
2021/01/20 10:03:54;;;;;;;2.58;1.70;;;15.10;83.60;;;;;;5036598;28;20057;-59
2021/01/20 10:06:22;;;;;;;3.78;2.22;;;14.90;82.00;;;;;;5040593;28;20041;-59
2021/01/20 10:08:49;;;;;;;3.95;2.30;;;15.00;82.60;;;;;;5037382;28;20466;-59
2021/01/20 10:11:16;;;;;;;5.03;3.30;;;15.00;82.40;;;;;;5038645;28;20045;-59
2021/01/20 10:13:43;;;;;;;4.07;2.67;;;15.10;81.60;;;;;;5037059;28;20048;-59
2021/01/20 10:16:10;;;;;;;4.63;2.97;;;15.20;81.30;;;;;;5038985;28;20045;-59
2021/01/20 10:18:38;;;;;;;2.83;1.55;;;15.40;81.20;;;;;;5047863;28;20115;-59
2021/01/20 10:21:05;;;;;;;3.13;1.88;;;15.30;80.00;;;;;;5040875;28;20144;-59
2021/01/20 10:23:32;;;;;;;2.80;1.90;;;15.30;80.80;;;;;;5050120;28;20045;-59
2021/01/20 10:25:59;;;;;;;3.80;2.17;;;15.30;80.40;;;;;;5046564;28;20069;-59
2021/01/20 10:28:26;;;;;;;4.38;1.83;;;15.20;81.60;;;;;;5040235;28;20048;-59
2021/01/20 10:30:56;;;;;;;3.13;2.35;;;15.10;81.10;;;;;;5036498;28;20045;-59
2021/01/20 10:33:26;;;;;;;3.83;2.13;;;14.90;81.50;;;;;;5037248;28;20495;-59
2021/01/20 10:35:56;;;;;;;2.50;1.60;;;14.70;81.90;;;;;;5043453;28;20049;-59
2021/01/20 10:38:23;;;;;;;2.83;1.90;;;14.80;82.30;;;;;;5040541;28;20063;-59
2021/01/20 10:40:50;;;;;;;2.80;1.90;;;14.90;82.50;;;;;;5035785;28;20049;-59
2021/01/20 10:43:18;;;;;;;2.90;1.70;;;15.10;82.00;;;;;;5040383;28;20045;-58
2021/01/20 10:45:45;;;;;;;2.35;1.52;;;14.90;81.40;;;;;;5041183;28;20052;-59
2021/01/20 10:48:16;;;;;;;2.42;1.83;;;14.40;82.30;;;;;;5031330;28;20168;-59
2021/01/20 10:50:46;;;;;;;2.58;1.48;;;14.10;83.30;;;;;;5031073;28;20103;-58
2021/01/20 10:53:13;;;;;;;1.70;1.27;;;14.30;83.40;;;;;;5059250;28;20041;-59
2021/01/20 10:55:40;;;;;;;1.95;1.50;;;14.40;82.50;;;;;;5045906;28;20092;-59
2021/01/20 10:58:09;;;;;;;3.22;1.35;;;14.20;82.60;;;;;;5041760;28;20157;-59
2021/01/20 11:00:37;;;;;;;3.88;1.52;;;14.30;83.40;;;;;;5033530;28;20164;-58
2021/01/20 11:03:08;;;;;;;2.45;1.60;;;14.20;82.70;;;;;;5041590;28;20137;-59
2021/01/20 11:05:36;;;;;;;3.20;1.60;;;14.00;83.70;;;;;;5035149;28;20064;-59
2021/01/20 11:08:03;;;;;;;4.43;1.90;;;13.80;85.40;;;;;;5041502;28;20503;-59
2021/01/20 11:10:30;;;;;;;5.93;1.98;;;13.70;85.30;;;;;;5034939;28;20041;-58
2021/01/20 11:12:57;;;;;;;4.22;2.10;;;13.60;85.70;;;;;;5041035;28;20168;-58
2021/01/20 11:15:26;;;;;;;4.15;3.08;;;13.60;86.30;;;;;;5034898;28;20052;-58
2021/01/20 11:17:56;;;;;;;2.97;1.83;;;13.60;87.10;;;;;;5041324;28;20053;-58
2021/01/20 11:20:23;;;;;;;3.95;2.60;;;13.50;86.50;;;;;;5034697;28;20123;-59
2021/01/20 11:22:50;;;;;;;3.53;1.90;;;13.40;86.80;;;;;;5041023;28;20567;-58
2021/01/20 11:25:18;;;;;;;3.47;2.10;;;13.30;86.70;;;;;;5034224;28;20038;-58
2021/01/20 11:27:45;;;;;;;4.28;2.42;;;13.30;87.80;;;;;;5040452;28;20046;-58
2021/01/20 11:30:13;;;;;;;4.80;2.25;;;13.20;87.00;;;;;;5032182;28;20053;-58
2021/01/20 11:32:44;;;;;;;5.85;2.55;;;13.20;87.60;;;;;;5041082;28;20049;-58
2021/01/20 11:35:13;;;;;;;5.40;3.20;;;13.10;88.80;;;;;;5034268;28;20045;-58
2021/01/20 11:37:40;;;;;;;8.68;3.90;;;13.10;89.50;;;;;;5041587;28;20049;-58
2021/01/20 11:40:08;;;;;;;6.18;4.15;;;13.10;89.90;;;;;;5039353;28;20045;-59
2021/01/20 11:42:38;;;;;;;9.13;4.63;;;13.10;89.80;;;;;;5044424;28;20145;-58
2021/01/20 11:45:07;;;;;;;5.78;3.63;;;13.20;90.00;;;;;;5036481;28;20459;-58
2021/01/20 11:47:36;;;;;;;6.15;2.70;;;13.10;90.20;;;;;;5044412;28;20076;-58
2021/01/20 11:50:05;;;;;;;6.03;3.65;;;13.10;90.10;;;;;;5036863;28;20085;-58
2021/01/20 11:52:32;;;;;;;5.70;3.85;;;13.10;90.30;;;;;;5045730;28;20112;-58
2021/01/20 11:55:03;;;;;;;7.70;4.05;;;13.20;90.60;;;;;;5038397;28;20387;-58
2021/01/20 11:57:32;;;;;;;5.43;3.22;;;13.20;90.70;;;;;;5046133;28;20065;-59
2021/01/20 11:59:59;;;;;;;3.47;2.00;;;13.20;91.20;;;;;;5036139;28;20056;-58
2021/01/20 12:02:26;;;;;;;6.05;2.65;;;13.20;90.80;;;;;;5045170;28;20053;-58
2021/01/20 12:04:53;;;;;;;5.47;3.15;;;13.10;91.10;;;;;;5054324;28;20434;-58
2021/01/20 12:07:20;;;;;;;5.38;2.50;;;13.20;91.30;;;;;;5046465;28;20184;-59
2021/01/20 12:09:48;;;;;;;4.90;3.70;;;13.20;91.00;;;;;;5035394;28;20135;-58
2021/01/20 12:12:15;;;;;;;8.25;6.05;;;13.20;91.50;;;;;;5045538;28;20049;-58
2021/01/20 12:14:42;;;;;;;5.35;3.70;;;13.20;91.90;;;;;;5035706;28;20050;-58
2021/01/20 12:17:09;;;;;;;5.65;3.97;;;13.10;91.40;;;;;;5047558;28;20042;-59
2021/01/20 12:19:37;;;;;;;4.95;3.60;;;13.10;91.70;;;;;;5055469;28;20053;-59
2021/01/20 12:22:04;;;;;;;5.25;3.42;;;13.10;91.80;;;;;;5046919;28;20045;-58
2021/01/20 12:24:33;;;;;;;6.97;4.30;;;13.10;92.40;;;;;;5035450;28;20046;-58
2021/01/20 12:27:01;;;;;;;6.18;2.70;;;13.10;91.70;;;;;;5043108;28;20056;-58
2021/01/20 12:29:28;;;;;;;3.92;2.92;;;13.10;91.50;;;;;;5035536;28;20045;-59
2021/01/20 12:31:55;;;;;;;7.40;5.05;;;13.00;91.20;;;;;;5046490;28;20047;-59
2021/01/20 12:34:22;;;;;;;11.38;7.68;;;13.00;91.40;;;;;;5034048;28;20423;-60
2021/01/20 12:36:50;;;;;;;10.85;6.93;;;13.00;91.70;;;;;;5044609;28;20048;-60
2021/01/20 12:39:20;;;;;;;9.35;4.72;;;13.10;91.10;;;;;;5035337;28;20380;-59
2021/01/20 12:41:47;;;;;;;12.73;7.95;;;13.10;91.00;;;;;;5045827;28;20045;-59
2021/01/20 12:44:14;;;;;;;8.48;5.57;;;13.10;90.90;;;;;;5035594;28;20136;-59
2021/01/20 12:46:41;;;;;;;7.22;4.20;;;13.10;90.90;;;;;;5044557;28;20060;-60
2021/01/20 12:49:09;;;;;;;5.90;3.08;;;13.20;90.70;;;;;;5033498;28;20563;-59
2021/01/20 12:51:38;;;;;;;3.15;2.20;;;13.20;90.00;;;;;;5043998;28;20045;-59
2021/01/20 12:54:07;;;;;;;3.38;2.00;;;13.30;85.70;;;;;;5036524;28;20053;-58
2021/01/20 12:56:34;;;;;;;5.85;3.03;;;13.30;85.50;;;;;;5043278;28;20053;-58
2021/01/20 12:59:02;;;;;;;7.95;4.47;;;13.30;86.40;;;;;;5037022;28;20041;-59
2021/01/20 13:01:31;;;;;;;7.65;4.22;;;13.30;87.30;;;;;;5041178;28;20055;-58
2021/01/20 13:03:59;;;;;;;8.05;4.63;;;13.30;87.30;;;;;;5041402;28;20061;-59
2021/01/20 13:06:26;;;;;;;6.50;4.03;;;13.20;87.70;;;;;;5038864;28;20396;-58
2021/01/20 13:08:53;;;;;;;6.82;4.32;;;13.30;88.50;;;;;;5051135;28;20407;-58
2021/01/20 13:11:20;;;;;;;4.65;3.05;;;13.30;89.20;;;;;;5046699;28;20045;-58
2021/01/20 13:13:48;;;;;;;5.70;2.85;;;13.30;88.80;;;;;;5050847;28;20130;-58